| time (UTC) | temp C | wind direction | speed KPH | gust KPH | rain 1hr cm | rain 24hr cm | rain mn cm | humidity % | barometer mb |
| 20260906113050 | 22 | 312 | 0.0 | 8.0 | 0.00 | 0.10 | 0.00 | 81 | 1010.7 |
| 20260906111552 | 22 | 312 | 3.2 | 8.0 | 0.00 | 0.10 | 0.00 | 81 | 1010.6 |
| 20260906110046 | 22 | 338 | 1.6 | 6.4 | 0.00 | 0.10 | 0.00 | 81 | 1010.3 |
| 20260906104546 | 22 | 347 | 4.8 | 12.9 | 0.00 | 0.10 | 0.00 | 81 | 1010.2 |
| 20260906103049 | 22 | 298 | 4.8 | 11.3 | 0.00 | 0.10 | 0.00 | 81 | 1010.1 |
| 20260906101543 | 22 | 330 | 0.0 | 9.7 | 0.00 | 0.10 | 0.00 | 82 | 1010.1 |
| 20260906100050 | 22 | 331 | 1.6 | 6.4 | 0.00 | 0.10 | 0.00 | 82 | 1009.9 |
| 20260906094548 | 22 | 333 | 3.2 | 8.0 | 0.00 | 0.10 | 0.00 | 82 | 1009.6 |
| 20260906093041 | 22 | 326 | 1.6 | 4.8 | 0.00 | 0.10 | 0.00 | 82 | 1009.4 |
| 20260906091539 | 22 | 326 | 0.0 | 0.0 | 0.00 | 0.10 | 0.00 | 82 | 1009.2 |
| 20260906090037 | 22 | 326 | 1.6 | 4.8 | 0.00 | 0.10 | 0.00 | 82 | 1009.3 |
| 20260906084536 | 21 | 326 | 0.0 | 0.0 | 0.00 | 0.10 | 0.00 | 82 | 1009.1 |
| 20260906083035 | 21 | 326 | 0.0 | 4.8 | 0.00 | 0.10 | 0.00 | 82 | 1009.1 |
| 20260906081533 | 21 | 326 | 1.6 | 4.8 | 0.00 | 0.10 | 0.00 | 81 | 1009.1 |
| 20260906080033 | 21 | 326 | 0.0 | 0.0 | 0.00 | 0.10 | 0.00 | 80 | 1008.6 |
| 20260906074532 | 21 | 326 | 0.0 | 0.0 | 0.00 | 0.10 | 0.00 | 80 | 1008.6 |
| 20260906073031 | 21 | 326 | 0.0 | 0.0 | 0.00 | 0.10 | 0.00 | 80 | 1008.5 |
| 20260906071528 | 21 | 326 | 0.0 | 0.0 | 0.00 | 0.10 | 0.00 | 80 | 1008.5 |
| 20260906070026 | 21 | 326 | 0.0 | 0.0 | 0.00 | 0.10 | 0.00 | 80 | 1008.6 |
| 20260906064524 | 21 | 326 | 0.0 | 0.0 | 0.00 | 0.10 | 0.00 | 80 | 1008.6 |
| 20260906063029 | 21 | 326 | 0.0 | 0.0 | 0.00 | 0.10 | 0.00 | 80 | 1008.9 |
| 20260906061520 | 22 | 326 | 0.0 | 0.0 | 0.00 | 0.10 | 0.00 | 80 | 1008.9 |
| 20260906060021 | 22 | 326 | 0.0 | 0.0 | 0.00 | 0.10 | 0.00 | 80 | 1009.1 |
| 20260906054520 | 22 | 326 | 0.0 | 0.0 | 0.00 | 0.10 | 0.00 | 78 | 1009.2 |
| 20260906053014 | 22 | 326 | 0.0 | 0.0 | 0.00 | 0.10 | 0.00 | 78 | 1009.3 |
| 20260906051512 | 22 | 326 | 0.0 | 0.0 | 0.00 | 0.10 | 0.00 | 78 | 1009.6 |
| 20260906050011 | 22 | 326 | 0.0 | 0.0 | 0.00 | 0.10 | 0.00 | 77 | 1009.6 |
| 20260906044508 | 22 | 326 | 0.0 | 0.0 | 0.00 | 0.10 | 0.00 | 75 | 1009.8 |
| 20260906043007 | 22 | 326 | 0.0 | 0.0 | 0.00 | 0.10 | 0.00 | 74 | 1009.8 |
| 20260906041505 | 22 | 326 | 0.0 | 1.6 | 0.00 | 0.10 | 0.00 | 74 | 1009.9 |
| 20260906040004 | 22 | 326 | 0.0 | 1.6 | 0.00 | 0.10 | 0.10 | 74 | 1009.9 |
| 20260906034607 | 22 | 326 | 0.0 | 3.2 | 0.00 | 0.10 | 0.10 | 74 | 1010.0 |
| 20260906033003 | 22 | 326 | 0.0 | 0.0 | 0.00 | 0.10 | 0.10 | 74 | 1010.1 |
| 20260906031506 | 22 | 326 | 0.0 | 0.0 | 0.00 | 0.10 | 0.10 | 74 | 1010.0 |
| 20260906030004 | 22 | 326 | 0.0 | 1.6 | 0.00 | 0.10 | 0.10 | 74 | 1009.8 |
| 20260906024502 | 22 | 326 | 0.0 | 4.8 | 0.00 | 0.10 | 0.10 | 73 | 1009.8 |
| 20260906023104 | 23 | 326 | 0.0 | 4.8 | 0.00 | 0.10 | 0.10 | 73 | 1010.0 |
| 20260906021604 | 23 | 326 | 0.0 | 0.0 | 0.00 | 0.10 | 0.10 | 73 | 1009.7 |
| 20260906020058 | 23 | 326 | 0.0 | 0.0 | 0.00 | 0.10 | 0.10 | 73 | 1009.5 |
| 20260906014658 | 23 | 326 | 0.0 | 0.0 | 0.00 | 0.10 | 0.10 | 73 | 1009.6 |
| 20260906013104 | 23 | 326 | 0.0 | 0.0 | 0.00 | 0.10 | 0.10 | 71 | 1009.5 |
| 20260906011556 | 23 | 326 | 0.0 | 0.0 | 0.00 | 0.10 | 0.10 | 71 | 1009.3 |
| 20260906010056 | 23 | 326 | 0.0 | 0.0 | 0.00 | 0.10 | 0.10 | 70 | 1009.3 |
| 20260906004555 | 23 | 326 | 0.0 | 0.0 | 0.00 | 0.10 | 0.10 | 70 | 1009.2 |
| 20260906003055 | 24 | 326 | 0.0 | 0.0 | 0.00 | 0.10 | 0.10 | 70 | 1009.2 |
| 20260906001553 | 24 | 326 | 0.0 | 0.0 | 0.00 | 0.10 | 0.10 | 70 | 1009.0 |
| 20260906000100 | 24 | 326 | 0.0 | 3.2 | 0.00 | 0.10 | 0.10 | 69 | 1008.6 |
| 20260905234559 | 24 | 326 | 1.6 | 3.2 | 0.00 | 0.10 | 0.10 | 68 | 1008.6 |
| 20260905233054 | 25 | 326 | 0.0 | 3.2 | 0.00 | 0.10 | 0.10 | 68 | 1008.4 |
| 20260905231552 | 25 | 326 | 0.0 | 4.8 | 0.00 | 0.10 | 0.10 | 68 | 1008.2 |
| 20260905230052 | 25 | 326 | 1.6 | 4.8 | 0.00 | 0.10 | 0.10 | 68 | 1007.6 |
| 20260905224551 | 25 | 326 | 0.0 | 3.2 | 0.00 | 0.10 | 0.10 | 69 | 1007.2 |
| 20260905223051 | 24 | 326 | 0.0 | 3.2 | 0.00 | 0.10 | 0.10 | 68 | 1007.5 |
| 20260905221550 | 24 | 326 | 1.6 | 4.8 | 0.03 | 0.10 | 0.10 | 69 | 1007.9 |
| 20260905220050 | 24 | 326 | 0.0 | 3.2 | 0.05 | 0.10 | 0.10 | 68 | 1008.2 |
| 20260905214552 | 24 | 326 | 0.0 | 3.2 | 0.10 | 0.10 | 0.10 | 68 | 1008.0 |
| 20260905213058 | 25 | 333 | 3.2 | 6.4 | 0.10 | 0.10 | 0.10 | 67 | 1007.8 |
| 20260905211604 | 25 | 331 | 0.0 | 4.8 | 0.08 | 0.08 | 0.08 | 65 | 1007.6 |
| 20260905210059 | 26 | 331 | 1.6 | 8.0 | 0.05 | 0.05 | 0.05 | 60 | 1007.9 |
| 20260905204551 | 27 | 355 | 3.2 | 9.7 | 0.00 | 0.00 | 0.00 | 56 | 1007.8 |
| 20260905203048 | 27 | 306 | 3.2 | 11.3 | 0.00 | 0.00 | 0.00 | 54 | 1007.9 |
| 20260905201552 | 28 | 323 | 6.4 | 24.1 | 0.00 | 0.00 | 0.00 | 53 | 1007.8 |
| 20260905200052 | 29 | 338 | 8.0 | 29.0 | 0.00 | 0.00 | 0.00 | 51 | 1007.6 |
| 20260905194546 | 33 | 302 | 19.3 | 37.0 | 0.00 | 0.00 | 0.00 | 43 | 1007.7 |
| 20260905193044 | 35 | 257 | 1.6 | 9.7 | 0.00 | 0.00 | 0.00 | 36 | 1007.2 |
| 20260905191545 | 36 | 290 | 3.2 | 8.0 | 0.00 | 0.00 | 0.00 | 35 | 1007.0 |
| 20260905190042 | 36 | 263 | 3.2 | 11.3 | 0.00 | 0.00 | 0.00 | 33 | 1007.0 |
| 20260905184540 | 37 | 166 | 1.6 | 9.7 | 0.00 | 0.00 | 0.00 | 31 | 1007.0 |
| 20260905183037 | 36 | 299 | 3.2 | 8.0 | 0.00 | 0.00 | 0.00 | 33 | 1007.3 |
| 20260905181533 | 36 | 300 | 4.8 | 8.0 | 0.00 | 0.00 | 0.00 | 36 | 1007.6 |
| 20260905180031 | 35 | 263 | 4.8 | 11.3 | 0.00 | 0.00 | 0.00 | 34 | 1008.1 |
| 20260905174530 | 36 | 318 | 8.0 | 16.1 | 0.00 | 0.00 | 0.00 | 35 | 1008.4 |
| 20260905173049 | 35 | 296 | 6.4 | 16.1 | 0.00 | 0.00 | 0.00 | 38 | 1008.8 |
| 20260905171523 | 35 | 207 | 3.2 | 9.7 | 0.00 | 0.00 | 0.00 | 38 | 1009.0 |
| 20260905170019 | 35 | 297 | 4.8 | 12.9 | 0.00 | 0.00 | 0.00 | 41 | 1009.4 |
| 20260905164519 | 35 | 238 | 4.8 | 11.3 | 0.00 | 0.00 | 0.00 | 43 | 1009.5 |
| 20260905163015 | 34 | 196 | 3.2 | 6.4 | 0.00 | 0.00 | 0.00 | 42 | 1009.6 |
| 20260905161512 | 33 | 321 | 4.8 | 16.1 | 0.00 | 0.00 | 0.00 | 44 | 1009.9 |
| 20260905160010 | 33 | 212 | 1.6 | 9.7 | 0.00 | 0.00 | 0.00 | 47 | 1010.1 |
| 20260905154507 | 33 | 190 | 3.2 | 9.7 | 0.00 | 0.00 | 0.00 | 47 | 1010.3 |
| 20260905153004 | 32 | 176 | 3.2 | 9.7 | 0.00 | 0.00 | 0.00 | 50 | 1010.5 |
| 20260905151502 | 32 | 209 | 4.8 | 12.9 | 0.00 | 0.00 | 0.00 | 50 | 1010.5 |
| 20260905150059 | 31 | 257 | 3.2 | 11.3 | 0.00 | 0.00 | 0.00 | 54 | 1010.6 |
| 20260905144559 | 30 | 167 | 4.8 | 11.3 | 0.00 | 0.00 | 0.00 | 55 | 1010.6 |
| 20260905143055 | 30 | 171 | 4.8 | 11.3 | 0.00 | 0.00 | 0.00 | 55 | 1010.6 |
| 20260905141552 | 30 | 214 | 1.6 | 8.0 | 0.00 | 0.00 | 0.00 | 58 | 1010.6 |
| 20260905140049 | 28 | 211 | 1.6 | 11.3 | 0.00 | 0.00 | 0.00 | 60 | 1010.5 |
| 20260905134556 | 28 | 187 | 4.8 | 12.9 | 0.00 | 0.00 | 0.00 | 61 | 1010.4 |
| 20260905133048 | 27 | 202 | 4.8 | 12.9 | 0.00 | 0.00 | 0.00 | 62 | 1010.6 |
| 20260905131539 | 27 | 186 | 4.8 | 12.9 | 0.00 | 0.00 | 0.00 | 62 | 1010.6 |
| 20260905130037 | 26 | 167 | 4.8 | 11.3 | 0.00 | 0.00 | 0.00 | 63 | 1010.7 |
| 20260905124540 | 26 | 194 | 4.8 | 11.3 | 0.00 | 0.00 | 0.00 | 64 | 1010.7 |
| 20260905123032 | 25 | 163 | 3.2 | 8.0 | 0.00 | 0.00 | 0.00 | 65 | 1010.8 |
| 20260905121529 | 25 | 183 | 4.8 | 9.7 | 0.00 | 0.00 | 0.00 | 66 | 1010.6 |
| 20260905120027 | 24 | 156 | 4.8 | 8.0 | 0.00 | 0.00 | 0.00 | 68 | 1010.6 |
| 20260905114528 | 23 | 142 | 1.6 | 6.4 | 0.00 | 0.00 | 0.00 | 70 | 1010.5 |